Antiville, Indiana
Current Conditions -  °F | °C
As of 11:53 AM on Friday 24 Oct 2014 (Local Time) from KMIE Reporting Station
Overcast Overcast  
Wind Chill: 15°   Ceiling: 9500
Heat Index: 15°   Visibility: 10mi
Dew Point:   Wind: 8mph
Humidity: 55%   Direction: 240°WSW
Pressure: 30.09"   Gusts: NA
Location:  40.4312°N, 85.0058°W
Report Text: KMIE 241553Z 24007KT 10SM FEW070 OVC095 15/06 A3009 RMK AO2 SLP188 T01500061
Loading
Personal Weather Stations






























Interactive Weather Map
Tropical Storm Tracking
New forecast layout! Learn more

10-Day Weather Forecast

Advertisements
Track Severe Weather on mobile